sensor_id;sensor_type;location;lat;lon;timestamp;P1;durP1;ratioP1;P2;durP2;ratioP2
4148;SDS011;2088;51.032;7.082;2023-08-31T00:02:22;4.83;;;2.90;;
4148;SDS011;2088;51.032;7.082;2023-08-31T00:04:50;7.23;;;4.40;;
4148;SDS011;2088;51.032;7.082;2023-08-31T00:07:18;4.50;;;2.83;;
4148;SDS011;2088;51.032;7.082;2023-08-31T00:09:46;11.07;;;4.47;;
4148;SDS011;2088;51.032;7.082;2023-08-31T00:12:13;8.60;;;3.10;;
4148;SDS011;2088;51.032;7.082;2023-08-31T00:14:40;4.17;;;3.00;;
4148;SDS011;2088;51.032;7.082;2023-08-31T00:17:08;4.30;;;3.33;;
4148;SDS011;2088;51.032;7.082;2023-08-31T00:19:35;3.53;;;3.07;;
4148;SDS011;2088;51.032;7.082;2023-08-31T00:22:02;12.10;;;4.03;;
4148;SDS011;2088;51.032;7.082;2023-08-31T00:24:29;6.70;;;3.10;;
4148;SDS011;2088;51.032;7.082;2023-08-31T00:26:59;6.40;;;2.90;;
4148;SDS011;2088;51.032;7.082;2023-08-31T00:29:28;7.40;;;3.73;;
4148;SDS011;2088;51.032;7.082;2023-08-31T00:31:55;3.40;;;3.10;;
4148;SDS011;2088;51.032;7.082;2023-08-31T00:34:22;32.67;;;3.43;;
4148;SDS011;2088;51.032;7.082;2023-08-31T00:36:49;6.27;;;3.10;;
4148;SDS011;2088;51.032;7.082;2023-08-31T00:39:16;3.97;;;3.13;;
4148;SDS011;2088;51.032;7.082;2023-08-31T00:41:46;7.73;;;3.50;;
4148;SDS011;2088;51.032;7.082;2023-08-31T00:44:14;6.97;;;4.23;;
4148;SDS011;2088;51.032;7.082;2023-08-31T00:46:41;4.30;;;2.63;;
4148;SDS011;2088;51.032;7.082;2023-08-31T00:49:08;12.00;;;4.10;;
4148;SDS011;2088;51.032;7.082;2023-08-31T00:51:35;11.63;;;3.70;;
4148;SDS011;2088;51.032;7.082;2023-08-31T00:54:03;5.60;;;3.33;;
4148;SDS011;2088;51.032;7.082;2023-08-31T00:56:31;4.30;;;3.50;;
4148;SDS011;2088;51.032;7.082;2023-08-31T00:58:58;9.70;;;3.50;;
4148;SDS011;2088;51.032;7.082;2023-08-31T01:01:28;10.67;;;3.97;;
4148;SDS011;2088;51.032;7.082;2023-08-31T01:04:00;5.50;;;3.50;;
4148;SDS011;2088;51.032;7.082;2023-08-31T01:06:32;4.30;;;2.43;;
4148;SDS011;2088;51.032;7.082;2023-08-31T01:09:02;5.83;;;2.70;;
4148;SDS011;2088;51.032;7.082;2023-08-31T01:11:34;4.63;;;3.00;;
4148;SDS011;2088;51.032;7.082;2023-08-31T01:14:08;10.20;;;3.27;;
4148;SDS011;2088;51.032;7.082;2023-08-31T01:16:37;9.43;;;2.87;;
4148;SDS011;2088;51.032;7.082;2023-08-31T01:19:08;5.17;;;3.50;;
4148;SDS011;2088;51.032;7.082;2023-08-31T01:21:38;5.67;;;3.07;;
4148;SDS011;2088;51.032;7.082;2023-08-31T01:24:08;10.23;;;4.10;;
4148;SDS011;2088;51.032;7.082;2023-08-31T01:26:36;4.70;;;2.50;;
4148;SDS011;2088;51.032;7.082;2023-08-31T01:29:03;6.20;;;2.90;;
4148;SDS011;2088;51.032;7.082;2023-08-31T01:31:31;5.43;;;3.30;;
4148;SDS011;2088;51.032;7.082;2023-08-31T01:33:58;2.80;;;2.60;;
4148;SDS011;2088;51.032;7.082;2023-08-31T01:36:28;13.43;;;3.27;;
4148;SDS011;2088;51.032;7.082;2023-08-31T01:39:08;6.30;;;3.20;;
4148;SDS011;2088;51.032;7.082;2023-08-31T01:41:38;3.23;;;2.67;;
4148;SDS011;2088;51.032;7.082;2023-08-31T01:44:07;3.37;;;2.90;;
4148;SDS011;2088;51.032;7.082;2023-08-31T01:46:37;4.47;;;2.57;;
4148;SDS011;2088;51.032;7.082;2023-08-31T01:49:04;5.33;;;3.10;;
4148;SDS011;2088;51.032;7.082;2023-08-31T01:51:32;5.70;;;2.53;;
4148;SDS011;2088;51.032;7.082;2023-08-31T01:53:59;4.07;;;2.60;;
4148;SDS011;2088;51.032;7.082;2023-08-31T01:56:26;4.43;;;2.63;;
4148;SDS011;2088;51.032;7.082;2023-08-31T01:58:54;2.83;;;2.23;;
4148;SDS011;2088;51.032;7.082;2023-08-31T02:01:21;6.03;;;3.17;;
4148;SDS011;2088;51.032;7.082;2023-08-31T02:03:48;4.63;;;2.73;;
4148;SDS011;2088;51.032;7.082;2023-08-31T02:06:15;4.87;;;3.10;;
4148;SDS011;2088;51.032;7.082;2023-08-31T02:08:42;8.10;;;5.00;;
4148;SDS011;2088;51.032;7.082;2023-08-31T02:11:12;4.70;;;2.80;;
4148;SDS011;2088;51.032;7.082;2023-08-31T02:13:39;6.23;;;3.33;;
4148;SDS011;2088;51.032;7.082;2023-08-31T02:16:07;5.00;;;3.30;;
4148;SDS011;2088;51.032;7.082;2023-08-31T02:18:34;4.77;;;3.53;;
4148;SDS011;2088;51.032;7.082;2023-08-31T02:21:02;3.20;;;2.80;;
4148;SDS011;2088;51.032;7.082;2023-08-31T02:23:32;3.50;;;3.00;;
4148;SDS011;2088;51.032;7.082;2023-08-31T02:25:59;12.63;;;3.40;;
4148;SDS011;2088;51.032;7.082;2023-08-31T02:28:26;3.60;;;3.17;;
4148;SDS011;2088;51.032;7.082;2023-08-31T02:30:57;5.27;;;3.30;;
4148;SDS011;2088;51.032;7.082;2023-08-31T02:33:25;4.63;;;3.33;;
4148;SDS011;2088;51.032;7.082;2023-08-31T02:35:53;5.17;;;4.20;;
4148;SDS011;2088;51.032;7.082;2023-08-31T02:38:21;7.13;;;3.53;;
4148;SDS011;2088;51.032;7.082;2023-08-31T02:40:48;5.43;;;3.50;;
4148;SDS011;2088;51.032;7.082;2023-08-31T02:43:15;5.67;;;3.30;;
4148;SDS011;2088;51.032;7.082;2023-08-31T02:45:42;9.43;;;3.50;;
4148;SDS011;2088;51.032;7.082;2023-08-31T02:48:09;4.50;;;3.50;;
4148;SDS011;2088;51.032;7.082;2023-08-31T02:50:38;3.27;;;2.57;;
4148;SDS011;2088;51.032;7.082;2023-08-31T02:53:05;3.90;;;3.00;;
4148;SDS011;2088;51.032;7.082;2023-08-31T02:55:32;4.67;;;2.83;;
4148;SDS011;2088;51.032;7.082;2023-08-31T02:57:59;4.93;;;2.93;;
4148;SDS011;2088;51.032;7.082;2023-08-31T03:00:26;6.57;;;3.90;;
4148;SDS011;2088;51.032;7.082;2023-08-31T03:02:53;6.80;;;2.70;;
4148;SDS011;2088;51.032;7.082;2023-08-31T03:05:20;4.50;;;2.97;;
4148;SDS011;2088;51.032;7.082;2023-08-31T03:07:49;5.83;;;3.03;;
4148;SDS011;2088;51.032;7.082;2023-08-31T03:10:16;5.27;;;2.70;;
4148;SDS011;2088;51.032;7.082;2023-08-31T03:12:43;3.50;;;2.53;;
4148;SDS011;2088;51.032;7.082;2023-08-31T03:15:10;5.90;;;3.77;;
4148;SDS011;2088;51.032;7.082;2023-08-31T03:17:37;6.90;;;3.37;;
4148;SDS011;2088;51.032;7.082;2023-08-31T03:20:04;7.13;;;3.30;;
4148;SDS011;2088;51.032;7.082;2023-08-31T03:22:32;4.10;;;3.00;;
4148;SDS011;2088;51.032;7.082;2023-08-31T03:25:01;3.47;;;3.00;;
4148;SDS011;2088;51.032;7.082;2023-08-31T03:27:28;3.00;;;2.40;;
4148;SDS011;2088;51.032;7.082;2023-08-31T03:29:55;6.47;;;3.30;;
4148;SDS011;2088;51.032;7.082;2023-08-31T03:32:22;6.17;;;3.27;;
4148;SDS011;2088;51.032;7.082;2023-08-31T03:34:49;2.80;;;2.60;;
4148;SDS011;2088;51.032;7.082;2023-08-31T03:37:16;4.50;;;2.80;;
4148;SDS011;2088;51.032;7.082;2023-08-31T03:39:46;6.57;;;3.00;;
4148;SDS011;2088;51.032;7.082;2023-08-31T03:42:15;8.90;;;3.30;;
4148;SDS011;2088;51.032;7.082;2023-08-31T03:44:42;3.57;;;2.50;;
4148;SDS011;2088;51.032;7.082;2023-08-31T03:47:09;4.90;;;3.53;;
4148;SDS011;2088;51.032;7.082;2023-08-31T03:49:36;2.93;;;2.73;;
4148;SDS011;2088;51.032;7.082;2023-08-31T03:52:03;4.90;;;3.23;;
4148;SDS011;2088;51.032;7.082;2023-08-31T03:54:30;3.70;;;2.80;;
4148;SDS011;2088;51.032;7.082;2023-08-31T03:56:57;5.20;;;2.90;;
4148;SDS011;2088;51.032;7.082;2023-08-31T03:59:26;7.33;;;3.23;;
4148;SDS011;2088;51.032;7.082;2023-08-31T04:01:53;6.37;;;3.20;;
4148;SDS011;2088;51.032;7.082;2023-08-31T04:04:20;8.63;;;3.10;;
4148;SDS011;2088;51.032;7.082;2023-08-31T04:06:47;9.67;;;3.10;;
4148;SDS011;2088;51.032;7.082;2023-08-31T04:09:14;6.70;;;3.40;;
4148;SDS011;2088;51.032;7.082;2023-08-31T04:11:41;3.13;;;2.77;;
4148;SDS011;2088;51.032;7.082;2023-08-31T04:14:08;6.47;;;3.50;;
4148;SDS011;2088;51.032;7.082;2023-08-31T04:16:36;8.40;;;3.90;;
4148;SDS011;2088;51.032;7.082;2023-08-31T04:19:03;5.00;;;3.03;;
4148;SDS011;2088;51.032;7.082;2023-08-31T04:21:30;11.13;;;3.57;;
4148;SDS011;2088;51.032;7.082;2023-08-31T04:23:58;3.50;;;2.70;;
4148;SDS011;2088;51.032;7.082;2023-08-31T04:26:25;10.30;;;3.23;;
4148;SDS011;2088;51.032;7.082;2023-08-31T04:28:54;6.40;;;4.00;;
4148;SDS011;2088;51.032;7.082;2023-08-31T04:31:22;5.33;;;3.20;;
4148;SDS011;2088;51.032;7.082;2023-08-31T04:33:50;3.33;;;2.87;;
4148;SDS011;2088;51.032;7.082;2023-08-31T04:36:18;5.00;;;3.07;;
4148;SDS011;2088;51.032;7.082;2023-08-31T04:38:45;3.23;;;2.90;;
4148;SDS011;2088;51.032;7.082;2023-08-31T04:41:12;6.90;;;2.47;;
4148;SDS011;2088;51.032;7.082;2023-08-31T04:43:39;6.70;;;3.07;;
4148;SDS011;2088;51.032;7.082;2023-08-31T04:46:06;5.03;;;3.57;;
4148;SDS011;2088;51.032;7.082;2023-08-31T04:48:34;8.63;;;3.37;;
4148;SDS011;2088;51.032;7.082;2023-08-31T04:51:03;3.10;;;2.30;;
4148;SDS011;2088;51.032;7.082;2023-08-31T04:53:30;6.37;;;2.87;;
4148;SDS011;2088;51.032;7.082;2023-08-31T04:55:58;4.63;;;2.87;;
4148;SDS011;2088;51.032;7.082;2023-08-31T04:58:25;4.30;;;3.00;;
4148;SDS011;2088;51.032;7.082;2023-08-31T05:00:52;3.10;;;2.73;;
4148;SDS011;2088;51.032;7.082;2023-08-31T05:03:19;5.63;;;2.70;;
4148;SDS011;2088;51.032;7.082;2023-08-31T05:05:46;4.57;;;3.13;;
4148;SDS011;2088;51.032;7.082;2023-08-31T05:08:14;8.20;;;3.17;;
4148;SDS011;2088;51.032;7.082;2023-08-31T05:10:41;6.30;;;2.77;;
4148;SDS011;2088;51.032;7.082;2023-08-31T05:13:08;4.70;;;2.80;;
4148;SDS011;2088;51.032;7.082;2023-08-31T05:15:35;5.07;;;3.00;;
4148;SDS011;2088;51.032;7.082;2023-08-31T05:18:03;11.93;;;2.83;;
4148;SDS011;2088;51.032;7.082;2023-08-31T05:20:33;8.47;;;3.57;;
4148;SDS011;2088;51.032;7.082;2023-08-31T05:23:00;6.37;;;2.80;;
4148;SDS011;2088;51.032;7.082;2023-08-31T05:25:29;8.00;;;2.70;;
4148;SDS011;2088;51.032;7.082;2023-08-31T05:27:56;10.47;;;2.90;;
4148;SDS011;2088;51.032;7.082;2023-08-31T05:30:23;5.67;;;2.97;;
4148;SDS011;2088;51.032;7.082;2023-08-31T05:32:50;5.70;;;2.73;;
4148;SDS011;2088;51.032;7.082;2023-08-31T05:35:17;5.20;;;2.67;;
4148;SDS011;2088;51.032;7.082;2023-08-31T05:37:44;5.90;;;2.40;;
4148;SDS011;2088;51.032;7.082;2023-08-31T05:40:11;7.43;;;3.53;;
4148;SDS011;2088;51.032;7.082;2023-08-31T05:42:40;4.43;;;2.70;;
4148;SDS011;2088;51.032;7.082;2023-08-31T05:45:07;9.03;;;3.90;;
4148;SDS011;2088;51.032;7.082;2023-08-31T05:47:35;3.77;;;2.40;;
4148;SDS011;2088;51.032;7.082;2023-08-31T05:50:02;3.97;;;2.80;;
4148;SDS011;2088;51.032;7.082;2023-08-31T05:52:29;6.50;;;2.63;;
4148;SDS011;2088;51.032;7.082;2023-08-31T05:54:56;3.80;;;3.00;;
4148;SDS011;2088;51.032;7.082;2023-08-31T05:57:23;2.77;;;2.53;;
4148;SDS011;2088;51.032;7.082;2023-08-31T05:59:51;11.93;;;2.80;;
4148;SDS011;2088;51.032;7.082;2023-08-31T06:02:18;6.57;;;3.00;;
4148;SDS011;2088;51.032;7.082;2023-08-31T06:04:45;4.00;;;2.27;;
4148;SDS011;2088;51.032;7.082;2023-08-31T06:07:12;7.93;;;3.30;;
4148;SDS011;2088;51.032;7.082;2023-08-31T06:09:39;17.83;;;2.80;;
4148;SDS011;2088;51.032;7.082;2023-08-31T06:12:06;4.30;;;3.50;;
4148;SDS011;2088;51.032;7.082;2023-08-31T06:14:34;5.53;;;2.70;;
4148;SDS011;2088;51.032;7.082;2023-08-31T06:17:02;3.47;;;2.87;;
4148;SDS011;2088;51.032;7.082;2023-08-31T06:19:29;9.57;;;3.83;;
4148;SDS011;2088;51.032;7.082;2023-08-31T06:21:56;6.53;;;2.60;;
4148;SDS011;2088;51.032;7.082;2023-08-31T06:24:23;5.80;;;3.13;;
4148;SDS011;2088;51.032;7.082;2023-08-31T06:26:50;6.40;;;2.83;;
4148;SDS011;2088;51.032;7.082;2023-08-31T06:29:20;4.70;;;3.10;;
4148;SDS011;2088;51.032;7.082;2023-08-31T06:31:47;4.07;;;3.30;;
4148;SDS011;2088;51.032;7.082;2023-08-31T06:34:15;5.00;;;3.23;;
4148;SDS011;2088;51.032;7.082;2023-08-31T06:36:42;5.80;;;3.30;;
4148;SDS011;2088;51.032;7.082;2023-08-31T06:39:09;5.70;;;3.07;;
4148;SDS011;2088;51.032;7.082;2023-08-31T06:41:36;5.17;;;3.70;;
4148;SDS011;2088;51.032;7.082;2023-08-31T06:44:03;5.40;;;3.90;;
4148;SDS011;2088;51.032;7.082;2023-08-31T06:46:30;4.30;;;3.90;;
4148;SDS011;2088;51.032;7.082;2023-08-31T06:48:59;8.70;;;3.63;;
4148;SDS011;2088;51.032;7.082;2023-08-31T06:51:27;7.57;;;3.63;;
4148;SDS011;2088;51.032;7.082;2023-08-31T06:53:54;6.40;;;3.20;;
4148;SDS011;2088;51.032;7.082;2023-08-31T06:56:21;12.10;;;4.07;;
4148;SDS011;2088;51.032;7.082;2023-08-31T06:58:48;6.20;;;4.03;;
4148;SDS011;2088;51.032;7.082;2023-08-31T07:01:15;5.40;;;4.00;;
4148;SDS011;2088;51.032;7.082;2023-08-31T07:03:42;6.07;;;5.17;;
4148;SDS011;2088;51.032;7.082;2023-08-31T07:06:09;7.50;;;4.20;;
4148;SDS011;2088;51.032;7.082;2023-08-31T07:08:39;7.60;;;4.30;;
4148;SDS011;2088;51.032;7.082;2023-08-31T07:11:07;10.90;;;3.87;;
4148;SDS011;2088;51.032;7.082;2023-08-31T07:13:34;15.33;;;4.80;;
4148;SDS011;2088;51.032;7.082;2023-08-31T07:16:01;5.13;;;4.00;;
4148;SDS011;2088;51.032;7.082;2023-08-31T07:18:28;6.80;;;3.20;;
4148;SDS011;2088;51.032;7.082;2023-08-31T07:20:55;5.33;;;3.90;;
4148;SDS011;2088;51.032;7.082;2023-08-31T07:23:22;9.17;;;3.20;;
4148;SDS011;2088;51.032;7.082;2023-08-31T07:25:51;4.23;;;3.00;;
4148;SDS011;2088;51.032;7.082;2023-08-31T07:28:18;3.27;;;2.47;;
4148;SDS011;2088;51.032;7.082;2023-08-31T07:30:45;5.17;;;2.97;;
4148;SDS011;2088;51.032;7.082;2023-08-31T07:33:12;6.10;;;3.00;;
4148;SDS011;2088;51.032;7.082;2023-08-31T07:35:39;6.90;;;2.30;;
4148;SDS011;2088;51.032;7.082;2023-08-31T07:38:06;5.10;;;2.40;;
4148;SDS011;2088;51.032;7.082;2023-08-31T07:40:33;5.10;;;1.80;;
4148;SDS011;2088;51.032;7.082;2023-08-31T07:43:01;3.23;;;1.70;;
4148;SDS011;2088;51.032;7.082;2023-08-31T07:45:28;2.37;;;1.90;;
4148;SDS011;2088;51.032;7.082;2023-08-31T07:47:55;5.43;;;2.00;;
4148;SDS011;2088;51.032;7.082;2023-08-31T07:50:22;7.73;;;2.07;;
4148;SDS011;2088;51.032;7.082;2023-08-31T07:52:49;9.63;;;2.10;;
4148;SDS011;2088;51.032;7.082;2023-08-31T07:55:16;4.23;;;1.90;;
4148;SDS011;2088;51.032;7.082;2023-08-31T07:57:43;8.63;;;1.33;;
4148;SDS011;2088;51.032;7.082;2023-08-31T08:00:13;7.63;;;1.50;;
4148;SDS011;2088;51.032;7.082;2023-08-31T08:02:40;3.17;;;1.80;;
4148;SDS011;2088;51.032;7.082;2023-08-31T08:05:07;9.03;;;2.23;;
4148;SDS011;2088;51.032;7.082;2023-08-31T08:07:35;1.40;;;1.30;;
4148;SDS011;2088;51.032;7.082;2023-08-31T08:10:02;3.73;;;2.03;;
4148;SDS011;2088;51.032;7.082;2023-08-31T08:12:36;4.90;;;1.50;;
4148;SDS011;2088;51.032;7.082;2023-08-31T08:15:03;1.93;;;1.40;;
4148;SDS011;2088;51.032;7.082;2023-08-31T08:17:33;4.30;;;1.90;;
4148;SDS011;2088;51.032;7.082;2023-08-31T08:20:00;1.40;;;1.20;;
4148;SDS011;2088;51.032;7.082;2023-08-31T08:22:28;2.53;;;1.43;;
4148;SDS011;2088;51.032;7.082;2023-08-31T08:24:55;2.20;;;1.60;;
4148;SDS011;2088;51.032;7.082;2023-08-31T08:27:22;7.20;;;1.93;;
4148;SDS011;2088;51.032;7.082;2023-08-31T08:29:49;6.63;;;1.50;;
4148;SDS011;2088;51.032;7.082;2023-08-31T08:32:16;9.90;;;1.97;;
4148;SDS011;2088;51.032;7.082;2023-08-31T08:34:44;7.00;;;1.40;;
4148;SDS011;2088;51.032;7.082;2023-08-31T08:37:11;10.60;;;2.13;;
4148;SDS011;2088;51.032;7.082;2023-08-31T08:39:38;4.50;;;1.13;;
4148;SDS011;2088;51.032;7.082;2023-08-31T08:42:05;3.10;;;1.53;;
4148;SDS011;2088;51.032;7.082;2023-08-31T08:44:33;4.07;;;1.27;;
4148;SDS011;2088;51.032;7.082;2023-08-31T08:47:02;6.73;;;1.80;;
4148;SDS011;2088;51.032;7.082;2023-08-31T08:49:29;2.10;;;1.33;;
4148;SDS011;2088;51.032;7.082;2023-08-31T08:51:58;3.40;;;1.57;;
4148;SDS011;2088;51.032;7.082;2023-08-31T08:54:26;4.63;;;1.70;;
4148;SDS011;2088;51.032;7.082;2023-08-31T08:56:54;1.93;;;1.20;;
4148;SDS011;2088;51.032;7.082;2023-08-31T08:59:21;2.60;;;2.10;;
4148;SDS011;2088;51.032;7.082;2023-08-31T09:01:48;9.27;;;2.30;;
4148;SDS011;2088;51.032;7.082;2023-08-31T09:04:15;2.10;;;1.60;;
4148;SDS011;2088;51.032;7.082;2023-08-31T09:06:42;4.63;;;1.37;;
4148;SDS011;2088;51.032;7.082;2023-08-31T09:09:10;2.70;;;1.30;;
4148;SDS011;2088;51.032;7.082;2023-08-31T09:11:38;4.57;;;1.37;;
4148;SDS011;2088;51.032;7.082;2023-08-31T09:14:13;4.53;;;1.37;;
4148;SDS011;2088;51.032;7.082;2023-08-31T09:16:41;2.13;;;1.60;;
4148;SDS011;2088;51.032;7.082;2023-08-31T09:19:17;2.80;;;1.63;;
4148;SDS011;2088;51.032;7.082;2023-08-31T09:21:45;5.63;;;1.57;;
4148;SDS011;2088;51.032;7.082;2023-08-31T09:24:15;2.53;;;1.20;;
4148;SDS011;2088;51.032;7.082;2023-08-31T09:26:43;2.60;;;1.30;;
4148;SDS011;2088;51.032;7.082;2023-08-31T09:29:11;2.80;;;1.93;;
4148;SDS011;2088;51.032;7.082;2023-08-31T09:31:41;2.13;;;1.40;;
4148;SDS011;2088;51.032;7.082;2023-08-31T09:34:08;1.30;;;0.87;;
4148;SDS011;2088;51.032;7.082;2023-08-31T09:36:36;2.40;;;1.30;;
4148;SDS011;2088;51.032;7.082;2023-08-31T09:39:03;1.60;;;1.40;;
4148;SDS011;2088;51.032;7.082;2023-08-31T09:41:31;1.67;;;1.00;;
4148;SDS011;2088;51.032;7.082;2023-08-31T09:44:04;8.20;;;1.60;;
4148;SDS011;2088;51.032;7.082;2023-08-31T09:46:41;3.40;;;1.60;;
4148;SDS011;2088;51.032;7.082;2023-08-31T09:49:08;2.20;;;1.03;;
4148;SDS011;2088;51.032;7.082;2023-08-31T09:51:36;6.17;;;1.53;;
4148;SDS011;2088;51.032;7.082;2023-08-31T09:54:06;3.17;;;1.50;;
4148;SDS011;2088;51.032;7.082;2023-08-31T09:56:35;7.63;;;1.13;;
4148;SDS011;2088;51.032;7.082;2023-08-31T09:59:02;2.87;;;1.30;;
4148;SDS011;2088;51.032;7.082;2023-08-31T10:01:30;3.13;;;1.60;;
4148;SDS011;2088;51.032;7.082;2023-08-31T10:03:57;1.80;;;1.00;;
4148;SDS011;2088;51.032;7.082;2023-08-31T10:06:26;1.93;;;1.13;;
4148;SDS011;2088;51.032;7.082;2023-08-31T10:08:54;2.93;;;1.57;;
4148;SDS011;2088;51.032;7.082;2023-08-31T10:11:21;2.90;;;1.00;;
4148;SDS011;2088;51.032;7.082;2023-08-31T10:13:51;2.33;;;0.90;;
4148;SDS011;2088;51.032;7.082;2023-08-31T10:16:19;2.53;;;1.13;;
4148;SDS011;2088;51.032;7.082;2023-08-31T10:18:46;1.20;;;1.00;;
4148;SDS011;2088;51.032;7.082;2023-08-31T10:21:16;2.30;;;1.33;;
4148;SDS011;2088;51.032;7.082;2023-08-31T10:23:46;9.33;;;1.30;;
4148;SDS011;2088;51.032;7.082;2023-08-31T10:26:22;1.90;;;1.30;;
4148;SDS011;2088;51.032;7.082;2023-08-31T10:28:49;4.33;;;1.00;;
4148;SDS011;2088;51.032;7.082;2023-08-31T10:31:18;2.63;;;1.47;;
4148;SDS011;2088;51.032;7.082;2023-08-31T10:33:47;6.33;;;1.10;;
4148;SDS011;2088;51.032;7.082;2023-08-31T10:36:22;1.40;;;1.10;;
4148;SDS011;2088;51.032;7.082;2023-08-31T10:39:01;2.43;;;1.00;;
4148;SDS011;2088;51.032;7.082;2023-08-31T10:41:31;1.43;;;1.00;;
4148;SDS011;2088;51.032;7.082;2023-08-31T10:43:59;2.03;;;1.20;;
4148;SDS011;2088;51.032;7.082;2023-08-31T10:46:29;4.90;;;2.00;;
4148;SDS011;2088;51.032;7.082;2023-08-31T10:48:55;2.70;;;1.13;;
4148;SDS011;2088;51.032;7.082;2023-08-31T10:51:23;6.60;;;1.23;;
4148;SDS011;2088;51.032;7.082;2023-08-31T10:53:51;1.93;;;1.17;;
4148;SDS011;2088;51.032;7.082;2023-08-31T10:56:18;4.80;;;1.50;;
4148;SDS011;2088;51.032;7.082;2023-08-31T10:58:58;2.60;;;1.40;;
4148;SDS011;2088;51.032;7.082;2023-08-31T11:04:12;4.27;;;2.00;;
4148;SDS011;2088;51.032;7.082;2023-08-31T11:06:39;1.10;;;0.90;;
4148;SDS011;2088;51.032;7.082;2023-08-31T11:09:06;6.27;;;1.00;;
4148;SDS011;2088;51.032;7.082;2023-08-31T11:11:37;7.07;;;1.50;;
4148;SDS011;2088;51.032;7.082;2023-08-31T11:14:04;3.00;;;1.20;;
4148;SDS011;2088;51.032;7.082;2023-08-31T11:16:31;2.17;;;1.30;;
4148;SDS011;2088;51.032;7.082;2023-08-31T11:18:58;4.53;;;1.77;;
4148;SDS011;2088;51.032;7.082;2023-08-31T11:21:27;1.77;;;1.10;;
4148;SDS011;2088;51.032;7.082;2023-08-31T11:23:56;6.60;;;1.30;;
4148;SDS011;2088;51.032;7.082;2023-08-31T11:26:23;21.90;;;2.07;;
4148;SDS011;2088;51.032;7.082;2023-08-31T11:28:50;4.73;;;1.37;;
4148;SDS011;2088;51.032;7.082;2023-08-31T11:31:22;1.33;;;1.23;;
4148;SDS011;2088;51.032;7.082;2023-08-31T11:33:50;2.50;;;1.40;;
4148;SDS011;2088;51.032;7.082;2023-08-31T11:36:17;1.77;;;1.00;;
4148;SDS011;2088;51.032;7.082;2023-08-31T11:38:46;2.30;;;1.20;;
4148;SDS011;2088;51.032;7.082;2023-08-31T11:41:14;3.60;;;1.10;;
4148;SDS011;2088;51.032;7.082;2023-08-31T11:43:41;1.97;;;1.37;;
4148;SDS011;2088;51.032;7.082;2023-08-31T11:46:08;1.60;;;1.00;;
4148;SDS011;2088;51.032;7.082;2023-08-31T11:48:35;4.43;;;1.80;;
4148;SDS011;2088;51.032;7.082;2023-08-31T11:51:02;1.53;;;1.00;;
4148;SDS011;2088;51.032;7.082;2023-08-31T11:53:30;3.03;;;1.03;;
4148;SDS011;2088;51.032;7.082;2023-08-31T11:56:01;2.80;;;1.43;;
4148;SDS011;2088;51.032;7.082;2023-08-31T11:58:28;3.10;;;1.40;;
4148;SDS011;2088;51.032;7.082;2023-08-31T12:00:56;5.27;;;1.50;;
4148;SDS011;2088;51.032;7.082;2023-08-31T12:03:23;3.13;;;1.40;;
4148;SDS011;2088;51.032;7.082;2023-08-31T12:05:51;4.53;;;1.87;;
4148;SDS011;2088;51.032;7.082;2023-08-31T12:08:25;9.93;;;3.80;;
4148;SDS011;2088;51.032;7.082;2023-08-31T12:10:52;6.13;;;1.80;;
4148;SDS011;2088;51.032;7.082;2023-08-31T12:13:25;7.53;;;1.40;;
4148;SDS011;2088;51.032;7.082;2023-08-31T12:15:53;4.47;;;2.00;;
4148;SDS011;2088;51.032;7.082;2023-08-31T12:18:21;4.93;;;1.77;;
4148;SDS011;2088;51.032;7.082;2023-08-31T12:20:49;3.10;;;1.20;;
4148;SDS011;2088;51.032;7.082;2023-08-31T12:23:17;5.20;;;1.30;;
4148;SDS011;2088;51.032;7.082;2023-08-31T12:25:47;2.30;;;1.27;;
4148;SDS011;2088;51.032;7.082;2023-08-31T12:28:14;5.17;;;1.87;;
4148;SDS011;2088;51.032;7.082;2023-08-31T12:30:45;4.03;;;1.10;;
4148;SDS011;2088;51.032;7.082;2023-08-31T12:33:12;6.30;;;1.27;;
4148;SDS011;2088;51.032;7.082;2023-08-31T12:35:39;1.53;;;1.10;;
4148;SDS011;2088;51.032;7.082;2023-08-31T12:38:06;1.47;;;0.90;;
4148;SDS011;2088;51.032;7.082;2023-08-31T12:40:34;6.77;;;1.50;;
4148;SDS011;2088;51.032;7.082;2023-08-31T12:43:01;1.40;;;1.03;;
4148;SDS011;2088;51.032;7.082;2023-08-31T12:45:28;1.97;;;1.00;;
4148;SDS011;2088;51.032;7.082;2023-08-31T12:47:56;2.90;;;1.47;;
4148;SDS011;2088;51.032;7.082;2023-08-31T12:50:23;2.67;;;1.40;;
4148;SDS011;2088;51.032;7.082;2023-08-31T12:52:50;2.67;;;1.53;;
4148;SDS011;2088;51.032;7.082;2023-08-31T12:55:18;6.07;;;1.40;;
4148;SDS011;2088;51.032;7.082;2023-08-31T12:57:45;4.80;;;1.50;;
4148;SDS011;2088;51.032;7.082;2023-08-31T13:00:14;3.30;;;1.50;;
4148;SDS011;2088;51.032;7.082;2023-08-31T13:02:42;3.40;;;1.40;;
4148;SDS011;2088;51.032;7.082;2023-08-31T13:05:11;2.17;;;1.30;;
4148;SDS011;2088;51.032;7.082;2023-08-31T13:07:38;2.80;;;1.40;;
4148;SDS011;2088;51.032;7.082;2023-08-31T13:10:06;1.40;;;1.13;;
4148;SDS011;2088;51.032;7.082;2023-08-31T13:12:33;2.37;;;1.27;;
4148;SDS011;2088;51.032;7.082;2023-08-31T13:15:02;1.30;;;1.10;;
4148;SDS011;2088;51.032;7.082;2023-08-31T13:17:29;1.77;;;0.80;;
4148;SDS011;2088;51.032;7.082;2023-08-31T13:19:56;1.53;;;1.10;;
4148;SDS011;2088;51.032;7.082;2023-08-31T13:22:25;3.67;;;1.00;;
4148;SDS011;2088;51.032;7.082;2023-08-31T13:24:52;2.00;;;1.37;;
4148;SDS011;2088;51.032;7.082;2023-08-31T13:27:19;2.90;;;0.90;;
4148;SDS011;2088;51.032;7.082;2023-08-31T13:29:46;1.83;;;1.10;;
4148;SDS011;2088;51.032;7.082;2023-08-31T13:32:13;4.60;;;1.23;;
4148;SDS011;2088;51.032;7.082;2023-08-31T13:34:40;2.27;;;1.00;;
4148;SDS011;2088;51.032;7.082;2023-08-31T13:37:07;2.37;;;1.70;;
4148;SDS011;2088;51.032;7.082;2023-08-31T13:39:36;3.80;;;1.83;;
4148;SDS011;2088;51.032;7.082;2023-08-31T13:42:05;4.20;;;1.83;;
4148;SDS011;2088;51.032;7.082;2023-08-31T13:44:33;4.30;;;1.10;;
4148;SDS011;2088;51.032;7.082;2023-08-31T13:47:01;2.33;;;1.20;;
4148;SDS011;2088;51.032;7.082;2023-08-31T13:49:30;6.00;;;1.27;;
4148;SDS011;2088;51.032;7.082;2023-08-31T13:51:57;1.40;;;1.30;;
4148;SDS011;2088;51.032;7.082;2023-08-31T13:54:24;5.80;;;2.10;;
4148;SDS011;2088;51.032;7.082;2023-08-31T13:56:52;3.57;;;1.70;;
4148;SDS011;2088;51.032;7.082;2023-08-31T13:59:19;4.43;;;1.20;;
4148;SDS011;2088;51.032;7.082;2023-08-31T14:01:47;3.40;;;1.53;;
4148;SDS011;2088;51.032;7.082;2023-08-31T14:04:14;2.77;;;1.90;;
4148;SDS011;2088;51.032;7.082;2023-08-31T14:06:41;4.13;;;1.10;;
4148;SDS011;2088;51.032;7.082;2023-08-31T14:09:08;5.50;;;1.30;;
4148;SDS011;2088;51.032;7.082;2023-08-31T14:11:35;6.47;;;1.30;;
4148;SDS011;2088;51.032;7.082;2023-08-31T14:14:04;2.73;;;1.23;;
4148;SDS011;2088;51.032;7.082;2023-08-31T14:16:34;4.27;;;1.63;;
4148;SDS011;2088;51.032;7.082;2023-08-31T14:19:02;2.90;;;1.37;;
4148;SDS011;2088;51.032;7.082;2023-08-31T14:21:29;3.27;;;0.97;;
4148;SDS011;2088;51.032;7.082;2023-08-31T14:23:56;2.13;;;1.00;;
4148;SDS011;2088;51.032;7.082;2023-08-31T14:26:23;2.20;;;1.30;;
4148;SDS011;2088;51.032;7.082;2023-08-31T14:28:51;2.83;;;1.20;;
4148;SDS011;2088;51.032;7.082;2023-08-31T14:31:19;2.63;;;1.17;;
4148;SDS011;2088;51.032;7.082;2023-08-31T14:33:47;5.83;;;1.70;;
4148;SDS011;2088;51.032;7.082;2023-08-31T14:36:15;3.40;;;1.40;;
4148;SDS011;2088;51.032;7.082;2023-08-31T14:38:42;3.20;;;1.43;;
4148;SDS011;2088;51.032;7.082;2023-08-31T14:41:10;2.23;;;1.40;;
4148;SDS011;2088;51.032;7.082;2023-08-31T14:43:37;3.33;;;1.40;;
4148;SDS011;2088;51.032;7.082;2023-08-31T14:46:05;5.93;;;1.43;;
4148;SDS011;2088;51.032;7.082;2023-08-31T14:48:33;3.97;;;1.30;;
4148;SDS011;2088;51.032;7.082;2023-08-31T14:51:00;7.33;;;1.33;;
4148;SDS011;2088;51.032;7.082;2023-08-31T14:53:28;2.97;;;1.10;;
4148;SDS011;2088;51.032;7.082;2023-08-31T14:55:55;3.23;;;1.47;;
4148;SDS011;2088;51.032;7.082;2023-08-31T14:58:22;3.50;;;1.37;;
4148;SDS011;2088;51.032;7.082;2023-08-31T15:00:49;2.23;;;1.20;;
4148;SDS011;2088;51.032;7.082;2023-08-31T15:03:16;7.03;;;1.77;;
4148;SDS011;2088;51.032;7.082;2023-08-31T15:05:49;2.70;;;1.30;;
4148;SDS011;2088;51.032;7.082;2023-08-31T15:08:16;2.20;;;1.30;;
4148;SDS011;2088;51.032;7.082;2023-08-31T15:10:43;8.27;;;1.83;;
4148;SDS011;2088;51.032;7.082;2023-08-31T15:13:10;4.30;;;1.30;;
4148;SDS011;2088;51.032;7.082;2023-08-31T15:15:37;3.90;;;1.50;;
4148;SDS011;2088;51.032;7.082;2023-08-31T15:18:04;2.70;;;1.60;;
4148;SDS011;2088;51.032;7.082;2023-08-31T15:20:31;4.30;;;1.50;;
4148;SDS011;2088;51.032;7.082;2023-08-31T15:23:00;3.13;;;1.30;;